首页
METAR-TAF:

METAR-TAF

机场 :

赤塔機場

赤塔, 俄罗斯

纬度: 52-05N, 经度: 113-29E, 海拔: 685米

当前天气观测

该预报发布于27分钟前的01:30 UTC
风速6节,风向西南
温度 17°C
湿度 34%
气压 1008 hPa
能见度10公里或以上

METAR: UIAA 260130Z 23003MPS 9999 NSC 17/01 Q1008 R29/70D NOSIG RMK QFE697/0930

时间: 10:57 (01:57 UTC)

预报

该预报发布于2小时和57分钟前的23:00 UTC
预报有效从26日的 00点(UTC)到 26日的 24点(UTC)
风速6节,风向东北
能见度10公里或以上
多云层高于2000英尺, 积雨云.
短暂存在
从 26日的 03点(UTC)到 26日的 24点(UTC)
风速12节,风向西转西北,有时为23节阵风
能見度: 3100
雷暴, 小雨

TAF: UIAA 252300Z 2600/2624 04003MPS 9999 BKN020CB TEMPO 2603/2624 29006G12MPS 3100 -TSRA

超过4000个机场的气象观测和天气预报(METAR&TAF报告)。

可查询的气象台以黄色和红色小点在地图上表示。

将鼠标移到小点上方,可查看气象台名称。

然后点击查看天气观测和预报。

如需切换地图:点击带黑十字的绿色按钮放大地图;点击带横线的绿色按钮缩小地图;或者点击绿色箭头查看邻近地区的地图。


METAR-TAF: